| Date Time MST |
Temp °F |
RH % |
DewPt °F |
Wind mph |
Dir ° |
Gust mph |
Dir ° |
Press in Hg |
Solar W/m^2 |
Prec in |
|---|---|---|---|---|---|---|---|---|---|---|
| 2026-05-03 00:25 | 54.0 | 25.1 | 19.1 | 1.6 | 198 | 2.8 | 176 | 24.850 | 0.0 | 0.00 |
| 2026-05-03 00:20 | 54.7 | 23.2 | 17.8 | 3.8 | 308 | 4.8 | 284 | 24.848 | 0.0 | 0.00 |
| 2026-05-03 00:15 | 53.6 | 23.4 | 17.1 | 4.8 | 298 | 6.1 | 310 | 24.849 | 0.0 | 0.00 |
| 2026-05-03 00:10 | 52.6 | 26.7 | 19.3 | 6.1 | 310 | 7.4 | 308 | 24.852 | 0.0 | 0.00 |
| 2026-05-03 00:05 | 52.8 | 26.8 | 19.6 | 6.5 | 315 | 7.5 | 342 | 24.858 | 0.0 | 0.00 |
| 2026-05-03 00:00 | 53.5 | 26.5 | 19.9 | 5.7 | 342 | 6.5 | 348 | 24.862 | 0.0 | 0.00 |
| 2026-05-02 23:55 | 54.3 | 25.6 | 19.7 | 5.0 | 349 | 6.1 | 336 | 24.864 | 0.0 | 0.00 |
| 2026-05-02 23:50 | 52.8 | 24.4 | 17.3 | 5.5 | 326 | 6.4 | 313 | 24.869 | 0.0 | 0.00 |
| 2026-05-02 23:45 | 51.1 | 28.0 | 19.1 | 4.0 | 318 | 6.0 | 310 | 24.869 | 0.0 | 0.00 |
| 2026-05-02 23:40 | 51.8 | 29.8 | 21.2 | 3.5 | 315 | 4.7 | 321 | 24.867 | 0.0 | 0.00 |
| 2026-05-02 23:35 | 51.7 | 29.4 | 20.7 | 4.1 | 321 | 5.0 | 342 | 24.866 | 0.0 | 0.00 |
| 2026-05-02 23:30 | 51.7 | 28.6 | 20.1 | 5.2 | 341 | 6.3 | 355 | 24.866 | 0.0 | 0.00 |
| 2026-05-02 23:25 | 52.4 | 25.7 | 18.2 | 5.1 | 358 | 5.9 | 0 | 24.865 | 0.0 | 0.00 |
| 2026-05-02 23:20 | 52.7 | 25.3 | 18.1 | 3.4 | 2 | 4.5 | 2 | 24.866 | 0.1 | 0.00 |
| 2026-05-02 23:15 | 52.1 | 25.1 | 17.4 | 2.5 | 356 | 3.2 | 304 | 24.867 | 0.0 | 0.00 |
| 2026-05-02 23:10 | 51.5 | 26.2 | 17.9 | 2.8 | 306 | 3.9 | 347 | 24.866 | 0.0 | 0.00 |
| 2026-05-02 23:05 | 51.7 | 27.9 | 19.6 | 3.8 | 341 | 4.8 | 336 | 24.861 | 0.1 | 0.00 |
| 2026-05-02 23:00 | 51.3 | 26.5 | 18.0 | 5.2 | 352 | 6.1 | 340 | 24.857 | 0.0 | 0.00 |
| 2026-05-02 22:55 | 50.9 | 27.2 | 18.3 | 5.4 | 338 | 6.3 | 318 | 24.857 | 0.0 | 0.00 |
| 2026-05-02 22:50 | 51.4 | 28.6 | 19.9 | 4.7 | 319 | 5.6 | 319 | 24.857 | 0.0 | 0.00 |
| 2026-05-02 22:45 | 51.8 | 27.6 | 19.4 | 5.2 | 310 | 6.4 | 301 | 24.857 | 0.1 | 0.00 |
| 2026-05-02 22:40 | 50.1 | 27.2 | 17.5 | 7.0 | 307 | 8.5 | 314 | 24.858 | 0.0 | 0.00 |
| 2026-05-02 22:35 | 50.6 | 31.9 | 21.7 | 8.0 | 322 | 9.7 | 316 | 24.855 | 0.0 | 0.00 |
| 2026-05-02 22:30 | 53.2 | 28.6 | 21.4 | 8.3 | 2 | 10.3 | 330 | 24.857 | 0.0 | 0.00 |
| 2026-05-02 22:25 | 53.2 | 27.4 | 20.4 | 6.5 | 288 | 8.2 | 287 | 24.855 | 0.0 | 0.00 |
| 2026-05-02 22:20 | 52.6 | 28.8 | 21.2 | 4.8 | 299 | 6.0 | 300 | 24.854 | 0.1 | 0.00 |
| 2026-05-02 22:15 | 51.4 | 28.5 | 19.8 | 4.9 | 320 | 6.8 | 321 | 24.854 | 0.1 | 0.00 |
| 2026-05-02 22:10 | 51.9 | 26.9 | 18.9 | 2.8 | 335 | 4.8 | 348 | 24.855 | 0.0 | 0.00 |
| 2026-05-02 22:05 | 51.6 | 25.2 | 17.1 | 2.1 | 97 | 2.9 | 102 | 24.860 | 0.0 | 0.00 |
| 2026-05-02 22:00 | 51.4 | 23.6 | 15.4 | 1.7 | 98 | 2.8 | 95 | 24.861 | 0.0 | 0.00 |
| Date Time MST |
Temp °C |
RH % |
DewPt °C |
Wind m/s |
Dir ° |
Gust m/s |
Dir ° |
Press hPa |
Solar W/m^2 |
Prec mm |
|---|---|---|---|---|---|---|---|---|---|---|
| 2026-05-03 00:25 | 12.2 | 25.1 | -7.2 | 0.7 | 198 | 1.3 | 176 | 841.50 | 0.0 | 0.00 |
| 2026-05-03 00:20 | 12.6 | 23.2 | -7.9 | 1.7 | 308 | 2.1 | 284 | 841.43 | 0.0 | 0.00 |
| 2026-05-03 00:15 | 12.0 | 23.4 | -8.3 | 2.1 | 298 | 2.7 | 310 | 841.47 | 0.0 | 0.00 |
| 2026-05-03 00:10 | 11.5 | 26.7 | -7.1 | 2.7 | 310 | 3.3 | 308 | 841.58 | 0.0 | 0.00 |
| 2026-05-03 00:05 | 11.6 | 26.8 | -6.9 | 2.9 | 315 | 3.3 | 342 | 841.78 | 0.0 | 0.00 |
| 2026-05-03 00:00 | 12.0 | 26.5 | -6.7 | 2.5 | 342 | 2.9 | 348 | 841.92 | 0.0 | 0.00 |
| 2026-05-02 23:55 | 12.4 | 25.6 | -6.8 | 2.2 | 349 | 2.7 | 336 | 841.99 | 0.0 | 0.00 |
| 2026-05-02 23:50 | 11.5 | 24.4 | -8.2 | 2.4 | 326 | 2.9 | 313 | 842.17 | 0.0 | 0.00 |
| 2026-05-02 23:45 | 10.6 | 28.0 | -7.1 | 1.8 | 318 | 2.7 | 310 | 842.16 | 0.0 | 0.00 |
| 2026-05-02 23:40 | 11.0 | 29.8 | -6.0 | 1.6 | 315 | 2.1 | 321 | 842.09 | 0.0 | 0.00 |
| 2026-05-02 23:35 | 10.9 | 29.4 | -6.3 | 1.9 | 321 | 2.2 | 342 | 842.07 | 0.0 | 0.00 |
| 2026-05-02 23:30 | 10.9 | 28.6 | -6.6 | 2.3 | 341 | 2.8 | 355 | 842.05 | 0.0 | 0.00 |
| 2026-05-02 23:25 | 11.3 | 25.7 | -7.7 | 2.3 | 358 | 2.6 | 0 | 842.03 | 0.0 | 0.00 |
| 2026-05-02 23:20 | 11.5 | 25.3 | -7.7 | 1.5 | 2 | 2.0 | 2 | 842.05 | 0.1 | 0.00 |
| 2026-05-02 23:15 | 11.2 | 25.1 | -8.1 | 1.1 | 356 | 1.4 | 304 | 842.10 | 0.0 | 0.00 |
| 2026-05-02 23:10 | 10.8 | 26.2 | -7.8 | 1.2 | 306 | 1.7 | 347 | 842.07 | 0.0 | 0.00 |
| 2026-05-02 23:05 | 11.0 | 27.9 | -6.9 | 1.7 | 341 | 2.1 | 336 | 841.89 | 0.1 | 0.00 |
| 2026-05-02 23:00 | 10.7 | 26.5 | -7.8 | 2.3 | 352 | 2.7 | 340 | 841.75 | 0.0 | 0.00 |
| 2026-05-02 22:55 | 10.5 | 27.2 | -7.6 | 2.4 | 338 | 2.8 | 318 | 841.75 | 0.0 | 0.00 |
| 2026-05-02 22:50 | 10.8 | 28.6 | -6.7 | 2.1 | 319 | 2.5 | 319 | 841.77 | 0.0 | 0.00 |
| 2026-05-02 22:45 | 11.0 | 27.6 | -7.0 | 2.3 | 310 | 2.9 | 301 | 841.76 | 0.1 | 0.00 |
| 2026-05-02 22:40 | 10.0 | 27.2 | -8.0 | 3.1 | 307 | 3.8 | 314 | 841.80 | 0.0 | 0.00 |
| 2026-05-02 22:35 | 10.3 | 31.9 | -5.7 | 3.6 | 322 | 4.4 | 316 | 841.70 | 0.0 | 0.00 |
| 2026-05-02 22:30 | 11.8 | 28.6 | -5.9 | 3.7 | 2 | 4.6 | 330 | 841.76 | 0.0 | 0.00 |
| 2026-05-02 22:25 | 11.8 | 27.4 | -6.5 | 2.9 | 288 | 3.7 | 287 | 841.67 | 0.0 | 0.00 |
| 2026-05-02 22:20 | 11.5 | 28.8 | -6.0 | 2.2 | 299 | 2.7 | 300 | 841.64 | 0.1 | 0.00 |
| 2026-05-02 22:15 | 10.8 | 28.5 | -6.8 | 2.2 | 320 | 3.0 | 321 | 841.65 | 0.1 | 0.00 |
| 2026-05-02 22:10 | 11.0 | 26.9 | -7.3 | 1.3 | 335 | 2.1 | 348 | 841.68 | 0.0 | 0.00 |
| 2026-05-02 22:05 | 10.9 | 25.2 | -8.3 | 0.9 | 97 | 1.3 | 102 | 841.84 | 0.0 | 0.00 |
| 2026-05-02 22:00 | 10.8 | 23.6 | -9.2 | 0.8 | 98 | 1.2 | 95 | 841.89 | 0.0 | 0.00 |